Terminal Aerodrome Forecast
Issued by NWS

Home | Current Version | Previous Version | Text Only | Print | Product List | Glossary On
Versions: 1 2 3 4 5 6 7 8 9 10 11 12
000
FTUS45 KRIW 252332
TAFBPI
TAF
KBPI 252332Z 2600/2624 35007KT P6SM VCSH SCT050 BKN080
     FM260700 36007KT P6SM SCT080 BKN120
     FM261900 20012G20KT P6SM VCTS SCT070CB BKN090=

USA.gov is the U.S. government's official web portal to all federal, state and local government web resources and services.